Time;durP1;ratioP1;P1;durP2;ratioP2;P2;SDS_P1;SDS_P2;PMS_P1;PMS_P2;Temp;Humidity;BMP_temperature;BMP_pressure;BME280_temperature;BME280_humidity;BME280_pressure;Samples;Min_cycle;Max_cycle;Signal;HPM_P1;HPM_P2
2023/01/03 00:01:33;;;;;;;14.60;8.73;;;;;;;;;;4898812;29;20017;-72
2023/01/03 00:04:00;;;;;;;18.38;8.82;;;;;;;;;;4899053;29;20032;-72
2023/01/03 00:06:27;;;;;;;16.48;8.82;;;;;;;;;;4898419;29;20095;-72
2023/01/03 00:08:55;;;;;;;14.93;9.23;;;;;;;;;;4898962;29;20024;-72
2023/01/03 00:12:22;;;;;;;15.20;8.88;;;;;;;;;;4898715;29;20032;-72
2023/01/03 00:14:10;;;;;;;13.27;8.75;;;;;;;;;;4887364;29;20049;-72
2023/01/03 00:16:36;;;;;;;11.85;7.90;;;;;;;;;;4880459;29;20033;-72
2023/01/03 00:19:13;;;;;;;12.07;6.63;;;;;;;;;;4879907;29;20033;-71
2023/01/03 00:21:40;;;;;;;9.45;6.13;;;;;;;;;;4880005;29;20035;-72
2023/01/03 00:24:07;;;;;;;10.25;6.30;;;;;;;;;;4879515;29;20063;-73
2023/01/03 00:26:34;;;;;;;11.80;7.32;;;;;;;;;;4884247;29;20033;-72
2023/01/03 00:29:00;;;;;;;12.32;8.27;;;;;;;;;;4898384;29;20043;-72
2023/01/03 00:31:26;;;;;;;13.48;8.60;;;;;;;;;;4898384;29;20486;-72
2023/01/03 00:33:53;;;;;;;11.95;9.10;;;;;;;;;;4898158;29;20035;-72
2023/01/03 00:36:19;;;;;;;12.30;9.05;;;;;;;;;;4898361;29;20027;-71
2023/01/03 00:38:46;;;;;;;12.63;8.13;;;;;;;;;;4898512;29;20033;-72
2023/01/03 00:41:13;;;;;;;11.30;7.57;;;;;;;;;;4898238;29;20482;-72
2023/01/03 00:43:41;;;;;;;9.65;6.65;;;;;;;;;;4898130;29;20064;-72
2023/01/03 00:46:08;;;;;;;13.35;8.13;;;;;;;;;;4898225;29;20031;-72
2023/01/03 00:48:35;;;;;;;11.27;7.93;;;;;;;;;;4897685;29;20043;-72
2023/01/03 00:51:07;;;;;;;10.48;6.50;;;;;;;;;;4898005;29;20035;-72
2023/01/03 00:53:34;;;;;;;8.75;3.55;;;;;;;;;;4897961;29;20044;-72
2023/01/03 00:56:07;;;;;;;3.97;2.63;;;;;;;;;;4898162;29;20032;-72
2023/01/03 00:58:34;;;;;;;13.95;2.70;;;;;;;;;;4896925;29;20385;-72
2023/01/03 01:01:08;;;;;;;7.15;4.10;;;;;;;;;;4898047;29;20044;-72
2023/01/03 01:03:35;;;;;;;6.45;4.03;;;;;;;;;;4880595;29;20054;-72
2023/01/03 01:06:10;;;;;;;10.18;4.28;;;;;;;;;;4897936;29;20029;-72
2023/01/03 01:08:36;;;;;;;7.70;4.80;;;;;;;;;;4897804;29;20031;-72
2023/01/03 01:11:03;;;;;;;8.60;5.72;;;;;;;;;;4897885;29;20059;-72
2023/01/03 01:13:30;;;;;;;8.73;5.70;;;;;;;;;;4891630;29;20470;-72
2023/01/03 01:16:00;;;;;;;11.15;6.20;;;;;;;;;;4878966;29;20044;-72
2023/01/03 01:18:26;;;;;;;10.20;6.60;;;;;;;;;;4861990;29;20025;-72
2023/01/03 01:20:53;;;;;;;12.02;6.68;;;;;;;;;;4862182;29;20266;-72
2023/01/03 01:23:19;;;;;;;9.07;6.22;;;;;;;;;;4878703;29;20053;-72
2023/01/03 01:25:45;;;;;;;9.13;6.15;;;;;;;;;;4879174;29;20041;-72
2023/01/03 01:28:12;;;;;;;13.85;7.70;;;;;;;;;;4895723;29;20032;-72
2023/01/03 01:30:38;;;;;;;14.32;8.52;;;;;;;;;;4897224;29;20024;-72
2023/01/03 01:33:04;;;;;;;13.05;9.05;;;;;;;;;;4880398;29;20043;-72
2023/01/03 01:35:31;;;;;;;17.58;10.02;;;;;;;;;;4897091;29;20047;-72
2023/01/03 01:37:58;;;;;;;15.32;9.85;;;;;;;;;;4896998;29;20028;-72
2023/01/03 01:40:24;;;;;;;15.75;10.38;;;;;;;;;;4897132;29;20401;-72
2023/01/03 01:45:37;;;;;;;15.27;9.95;;;;;;;;;;4897008;29;20088;-72
2023/01/03 01:48:11;;;;;;;15.35;10.88;;;;;;;;;;4896533;29;20043;-72
2023/01/03 01:50:37;;;;;;;16.17;10.52;;;;;;;;;;4880259;29;20035;-72
2023/01/03 01:53:08;;;;;;;18.88;11.98;;;;;;;;;;4897081;29;20064;-72
2023/01/03 01:55:38;;;;;;;14.57;9.77;;;;;;;;;;4896879;29;20490;-72
2023/01/03 01:58:05;;;;;;;12.18;7.50;;;;;;;;;;4896957;29;20033;-72
2023/01/03 02:00:32;;;;;;;11.88;7.85;;;;;;;;;;4896836;29;20029;-73
2023/01/03 02:02:59;;;;;;;10.02;8.07;;;;;;;;;;4896672;29;20020;-72
2023/01/03 02:05:25;;;;;;;12.70;8.60;;;;;;;;;;4897153;29;20025;-72
2023/01/03 02:07:52;;;;;;;11.55;7.97;;;;;;;;;;4897051;29;20028;-72
2023/01/03 02:10:24;;;;;;;13.10;8.60;;;;;;;;;;4896333;29;20520;-72
2023/01/03 02:13:06;;;;;;;11.43;7.07;;;;;;;;;;4895800;29;20033;-72
2023/01/03 02:15:52;;;;;;;11.18;7.50;;;;;;;;;;4877506;29;20035;-72
2023/01/03 02:18:21;;;;;;;12.15;7.50;;;;;;;;;;4878127;29;20039;-72
2023/01/03 02:20:50;;;;;;;13.40;8.48;;;;;;;;;;4877710;29;20401;-72
2023/01/03 02:23:29;;;;;;;15.75;7.88;;;;;;;;;;4877745;29;20053;-72
2023/01/03 02:25:58;;;;;;;14.95;8.40;;;;;;;;;;4877712;29;20025;-72
2023/01/03 02:28:35;;;;;;;13.50;9.15;;;;;;;;;;4896584;29;20044;-72
2023/01/03 02:31:08;;;;;;;12.18;8.13;;;;;;;;;;4879355;29;20029;-72
2023/01/03 02:33:40;;;;;;;12.93;8.00;;;;;;;;;;4896298;29;20028;-72
2023/01/03 02:36:06;;;;;;;12.30;8.10;;;;;;;;;;4896581;29;20048;-72
2023/01/03 02:38:51;;;;;;;11.68;7.78;;;;;;;;;;4896367;29;20016;-72
2023/01/03 02:41:24;;;;;;;11.40;8.13;;;;;;;;;;4896272;29;20039;-73
2023/01/03 02:43:53;;;;;;;13.98;9.23;;;;;;;;;;4896276;29;20021;-72
2023/01/03 02:46:22;;;;;;;14.18;10.70;;;;;;;;;;4879314;29;20036;-72
2023/01/03 02:49:00;;;;;;;14.43;10.40;;;;;;;;;;4896372;29;20134;-72
2023/01/03 02:51:35;;;;;;;7.43;6.00;;;;;;;;;;4896194;29;20508;-72
2023/01/03 02:54:03;;;;;;;4.65;3.15;;;;;;;;;;4896240;29;20037;-72
2023/01/03 02:56:32;;;;;;;7.25;4.53;;;;;;;;;;4896403;29;20025;-72
2023/01/03 02:59:02;;;;;;;4.53;3.20;;;;;;;;;;4895816;29;20397;-72
2023/01/03 03:01:29;;;;;;;4.97;2.90;;;;;;;;;;4896163;29;20393;-72
2023/01/03 03:03:56;;;;;;;6.18;2.97;;;;;;;;;;4896355;29;20036;-72
2023/01/03 03:06:30;;;;;;;5.85;3.55;;;;;;;;;;4879723;29;20036;-72
2023/01/03 03:08:57;;;;;;;6.75;3.63;;;;;;;;;;4896283;29;20040;-72
2023/01/03 03:14:16;;;;;;;8.98;4.40;;;;;;;;;;4884398;29;20048;-72
2023/01/03 03:16:48;;;;;;;9.57;4.65;;;;;;;;;;4877552;29;20029;-72
2023/01/03 03:24:55;;;;;;;6.93;4.78;;;;;;;;;;4880919;29;20041;-72
2023/01/03 03:30:11;;;;;;;9.02;4.70;;;;;;;;;;4899577;29;20080;-72
2023/01/03 03:32:39;;;;;;;6.35;4.68;;;;;;;;;;4899511;29;20024;-72
2023/01/03 03:35:08;;;;;;;6.65;4.97;;;;;;;;;;4899691;29;20036;-72
2023/01/03 03:37:35;;;;;;;8.45;5.45;;;;;;;;;;4899327;29;20516;-72
2023/01/03 03:45:48;;;;;;;5.03;2.80;;;;;;;;;;4899286;29;20151;-72
2023/01/03 03:48:28;;;;;;;6.18;2.50;;;;;;;;;;4899470;29;20032;-72
2023/01/03 03:51:01;;;;;;;3.97;1.80;;;;;;;;;;4899139;29;20029;-72
2023/01/03 03:53:30;;;;;;;3.42;2.42;;;;;;;;;;4899071;29;20043;-72
2023/01/03 03:55:59;;;;;;;8.48;2.40;;;;;;;;;;4899239;29;20051;-72
2023/01/03 03:58:45;;;;;;;3.00;2.53;;;;;;;;;;4899003;29;20436;-72
2023/01/03 04:01:13;;;;;;;7.45;2.60;;;;;;;;;;4898956;29;20408;-72
2023/01/03 04:03:41;;;;;;;5.80;3.67;;;;;;;;;;4899040;29;20040;-72
2023/01/03 04:06:20;;;;;;;7.03;3.30;;;;;;;;;;4899085;29;20024;-72
2023/01/03 04:08:46;;;;;;;5.32;2.90;;;;;;;;;;4899003;29;20509;-72
2023/01/03 04:11:13;;;;;;;3.53;2.40;;;;;;;;;;4898637;29;20461;-72
2023/01/03 04:13:39;;;;;;;3.72;2.10;;;;;;;;;;4891635;29;20029;-72
2023/01/03 04:16:06;;;;;;;4.80;2.40;;;;;;;;;;4880194;29;20044;-72
2023/01/03 04:18:33;;;;;;;8.20;2.50;;;;;;;;;;4879855;29;20491;-72
2023/01/03 04:20:59;;;;;;;4.75;2.30;;;;;;;;;;4880319;29;20032;-72
2023/01/03 04:23:26;;;;;;;2.88;2.45;;;;;;;;;;4879651;29;20055;-72
2023/01/03 04:25:52;;;;;;;4.63;2.50;;;;;;;;;;4879444;29;20517;-72
2023/01/03 04:28:18;;;;;;;4.00;2.65;;;;;;;;;;4897335;29;20485;-72
2023/01/03 04:30:45;;;;;;;3.83;2.05;;;;;;;;;;4898466;29;20037;-72
2023/01/03 04:33:11;;;;;;;6.50;1.92;;;;;;;;;;4898180;29;20036;-72
2023/01/03 04:35:38;;;;;;;3.83;1.50;;;;;;;;;;4898219;29;20048;-72
2023/01/03 04:38:04;;;;;;;1.88;1.40;;;;;;;;;;4898336;29;20502;-72
2023/01/03 04:40:33;;;;;;;2.45;1.70;;;;;;;;;;4898020;29;20493;-72
2023/01/03 04:45:44;;;;;;;7.68;2.75;;;;;;;;;;4898233;29;20024;-72
2023/01/03 04:48:10;;;;;;;4.50;3.15;;;;;;;;;;4898162;29;20039;-72
2023/01/03 04:50:37;;;;;;;2.35;1.98;;;;;;;;;;4898071;29;20240;-72
2023/01/03 04:53:03;;;;;;;4.30;2.30;;;;;;;;;;4898248;29;20039;-72
2023/01/03 04:55:29;;;;;;;3.13;1.55;;;;;;;;;;4897407;29;20502;-72
2023/01/03 04:57:56;;;;;;;3.33;1.90;;;;;;;;;;4898241;29;20027;-72
2023/01/03 05:00:22;;;;;;;3.75;2.35;;;;;;;;;;4897924;29;20025;-72
2023/01/03 05:02:48;;;;;;;1.75;1.63;;;;;;;;;;4897846;29;20021;-72
2023/01/03 05:05:15;;;;;;;6.22;2.70;;;;;;;;;;4897846;29;20047;-72
2023/01/03 05:07:41;;;;;;;2.67;2.15;;;;;;;;;;4897705;29;20034;-72
2023/01/03 05:10:07;;;;;;;5.53;2.50;;;;;;;;;;4897372;29;20032;-72
2023/01/03 05:12:34;;;;;;;2.10;1.90;;;;;;;;;;4897716;29;20553;-72
2023/01/03 05:15:00;;;;;;;4.38;2.35;;;;;;;;;;4879948;29;20037;-72
2023/01/03 05:17:26;;;;;;;6.88;3.08;;;;;;;;;;4878789;29;20033;-72
2023/01/03 05:28:08;;;;;;;2.67;2.38;;;;;;;;;;4895073;29;20401;-71
2023/01/03 05:30:34;;;;;;;5.53;2.72;;;;;;;;;;4880921;29;20095;-72
2023/01/03 05:33:00;;;;;;;2.78;2.35;;;;;;;;;;4897274;29;20025;-71
2023/01/03 05:35:26;;;;;;;3.45;2.67;;;;;;;;;;4897183;29;20032;-72
2023/01/03 05:37:53;;;;;;;3.00;2.60;;;;;;;;;;4897543;29;20046;-72
2023/01/03 05:40:19;;;;;;;4.13;2.60;;;;;;;;;;4896844;29;20032;-71
2023/01/03 05:42:45;;;;;;;2.40;2.20;;;;;;;;;;4896940;29;20035;-71
2023/01/03 05:45:12;;;;;;;2.75;2.20;;;;;;;;;;4896656;29;20032;-71
2023/01/03 05:47:38;;;;;;;4.43;2.25;;;;;;;;;;4897058;29;20037;-71
2023/01/03 05:50:04;;;;;;;3.08;2.22;;;;;;;;;;4896903;29;20455;-72
2023/01/03 05:52:31;;;;;;;3.78;2.38;;;;;;;;;;4897013;29;20025;-71
2023/01/03 05:54:57;;;;;;;2.65;2.30;;;;;;;;;;4896836;29;20040;-71
2023/01/03 05:57:23;;;;;;;2.55;2.15;;;;;;;;;;4896779;29;20028;-70
2023/01/03 05:59:50;;;;;;;3.20;2.35;;;;;;;;;;4896772;29;20032;-71
2023/01/03 06:02:16;;;;;;;5.07;1.77;;;;;;;;;;4896736;29;20020;-71
2023/01/03 06:04:42;;;;;;;2.13;1.92;;;;;;;;;;4896898;29;20071;-71
2023/01/03 06:07:09;;;;;;;2.25;2.05;;;;;;;;;;4896751;29;20125;-71
2023/01/03 06:09:35;;;;;;;2.25;2.05;;;;;;;;;;4896604;29;20040;-71
2023/01/03 06:12:01;;;;;;;2.47;2.20;;;;;;;;;;4896890;29;20115;-71
2023/01/03 06:14:27;;;;;;;4.15;1.85;;;;;;;;;;4883187;29;20047;-71
2023/01/03 06:19:39;;;;;;;1.88;1.55;;;;;;;;;;4877691;29;20033;-72
2023/01/03 06:22:05;;;;;;;3.97;2.17;;;;;;;;;;4877356;29;20462;-71
2023/01/03 06:24:31;;;;;;;2.88;1.90;;;;;;;;;;4877660;29;20025;-71
2023/01/03 06:26:58;;;;;;;3.80;2.30;;;;;;;;;;4885010;29;20041;-71
2023/01/03 06:29:24;;;;;;;3.28;2.05;;;;;;;;;;4879665;29;20023;-71
2023/01/03 06:31:50;;;;;;;2.28;1.98;;;;;;;;;;4896497;29;20430;-71
2023/01/03 06:34:17;;;;;;;2.25;2.03;;;;;;;;;;4896349;29;20421;-72
2023/01/03 06:36:43;;;;;;;3.17;2.60;;;;;;;;;;4896042;29;20023;-71
2023/01/03 06:39:09;;;;;;;4.43;3.55;;;;;;;;;;4896395;29;20430;-71
2023/01/03 06:41:35;;;;;;;6.68;3.85;;;;;;;;;;4896472;29;20032;-72
2023/01/03 06:44:02;;;;;;;4.72;4.05;;;;;;;;;;4896049;29;20059;-72
2023/01/03 06:54:57;;;;;;;6.60;5.10;;;;;;;;;;4857668;29;20045;-71
2023/01/03 06:57:23;;;;;;;6.20;4.43;;;;;;;;;;4860503;29;20050;-72
2023/01/03 06:59:49;;;;;;;6.70;4.50;;;;;;;;;;4860402;29;20033;-71
2023/01/03 07:02:16;;;;;;;8.38;4.88;;;;;;;;;;4860250;29;20505;-72
2023/01/03 07:04:42;;;;;;;9.43;4.05;;;;;;;;;;4860432;29;20029;-72
2023/01/03 07:07:08;;;;;;;5.65;4.00;;;;;;;;;;4860233;29;20037;-71
2023/01/03 07:09:34;;;;;;;8.27;3.90;;;;;;;;;;4860250;29;20052;-71
2023/01/03 07:13:57;;;;;;;6.93;4.28;;;;;;;;;;4851507;29;20125;-71
2023/01/03 07:14:47;;;;;;;5.95;4.70;;;;;;;;;;4824398;29;20049;-71
2023/01/03 07:17:15;;;;;;;4.53;3.97;;;;;;;;;;4839746;29;20030;-71
2023/01/03 07:19:41;;;;;;;4.70;3.55;;;;;;;;;;4840850;29;20478;-72
2023/01/03 07:22:08;;;;;;;5.75;4.13;;;;;;;;;;4840710;29;20050;-71
2023/01/03 07:24:34;;;;;;;8.02;3.92;;;;;;;;;;4841505;29;20048;-71
2023/01/03 07:27:00;;;;;;;9.77;3.78;;;;;;;;;;4848844;29;20052;-71
2023/01/03 07:29:26;;;;;;;7.10;3.00;;;;;;;;;;4888055;29;20043;-70
2023/01/03 07:32:00;;;;;;;6.50;3.60;;;;;;;;;;4887188;29;20025;-71
2023/01/03 07:34:26;;;;;;;10.02;3.45;;;;;;;;;;4876470;29;20047;-71
2023/01/03 07:36:53;;;;;;;3.58;3.00;;;;;;;;;;4879270;29;20033;-71
2023/01/03 07:39:19;;;;;;;5.13;3.60;;;;;;;;;;4877738;29;20367;-71
2023/01/03 07:44:30;;;;;;;8.35;3.80;;;;;;;;;;4877520;29;20028;-72
2023/01/03 07:46:57;;;;;;;5.35;3.95;;;;;;;;;;4879349;29;20033;-71
2023/01/03 07:49:23;;;;;;;5.18;4.00;;;;;;;;;;4878735;29;20080;-71
2023/01/03 07:51:49;;;;;;;8.90;5.07;;;;;;;;;;4879675;29;20047;-72
2023/01/03 07:54:16;;;;;;;6.97;4.68;;;;;;;;;;4878834;29;20162;-71
2023/01/03 07:56:42;;;;;;;6.30;3.75;;;;;;;;;;4878487;29;20092;-71
2023/01/03 07:59:08;;;;;;;14.07;9.48;;;;;;;;;;4877790;29;20021;-71
2023/01/03 08:01:37;;;;;;;7.82;5.30;;;;;;;;;;4878168;29;20408;-71
2023/01/03 08:04:03;;;;;;;8.60;5.38;;;;;;;;;;4877664;29;20029;-71
2023/01/03 08:06:30;;;;;;;9.38;5.32;;;;;;;;;;4877478;29;20033;-71
2023/01/03 08:14:26;;;;;;;9.57;5.93;;;;;;;;;;4878914;29;20045;-71
2023/01/03 08:16:52;;;;;;;8.30;6.00;;;;;;;;;;4878869;29;20029;-71
2023/01/03 08:19:18;;;;;;;6.35;5.13;;;;;;;;;;4878682;29;20454;-71
2023/01/03 08:21:45;;;;;;;6.10;4.45;;;;;;;;;;4877200;29;20037;-71
2023/01/03 08:24:11;;;;;;;7.47;4.47;;;;;;;;;;4877072;29;20355;-71
2023/01/03 08:26:37;;;;;;;7.43;4.10;;;;;;;;;;4882012;29;20622;-71
2023/01/03 08:29:04;;;;;;;4.50;3.35;;;;;;;;;;4895634;29;20020;-71
2023/01/03 08:31:32;;;;;;;10.73;4.10;;;;;;;;;;4874844;29;20048;-71
2023/01/03 08:34:00;;;;;;;8.27;5.55;;;;;;;;;;4875876;29;20538;-71
2023/01/03 08:36:27;;;;;;;90.63;26.70;;;;;;;;;;4883287;29;20032;-71
2023/01/03 08:38:57;;;;;;;232.93;58.58;;;;;;;;;;4861209;29;20048;-71
2023/01/03 08:41:25;;;;;;;232.32;86.45;;;;;;;;;;4862335;29;20048;-72
2023/01/03 08:43:53;;;;;;;189.32;70.68;;;;;;;;;;4885076;29;20029;-71
2023/01/03 08:46:20;;;;;;;114.20;43.47;;;;;;;;;;4886383;29;20032;-70
2023/01/03 08:48:46;;;;;;;66.63;27.05;;;;;;;;;;4882924;29;20028;-71
2023/01/03 08:51:13;;;;;;;16.80;10.00;;;;;;;;;;4885279;29;20118;-71
2023/01/03 08:53:39;;;;;;;18.05;10.73;;;;;;;;;;4887202;29;20096;-71
2023/01/03 08:56:06;;;;;;;12.80;7.50;;;;;;;;;;4883379;29;20047;-70
2023/01/03 08:58:33;;;;;;;11.65;7.47;;;;;;;;;;4877744;29;20050;-71
2023/01/03 09:01:07;;;;;;;10.82;7.30;;;;;;;;;;4877671;29;20025;-71
2023/01/03 09:03:33;;;;;;;11.48;6.85;;;;;;;;;;4876458;29;20028;-71
2023/01/03 09:06:00;;;;;;;10.20;6.70;;;;;;;;;;4867077;29;20039;-71
2023/01/03 09:08:29;;;;;;;6.13;5.40;;;;;;;;;;4873318;29;20037;-71
2023/01/03 09:10:55;;;;;;;9.20;6.10;;;;;;;;;;4875277;29;20043;-71
2023/01/03 09:13:22;;;;;;;13.20;5.40;;;;;;;;;;4860905;29;20048;-71
2023/01/03 09:15:48;;;;;;;7.60;4.93;;;;;;;;;;4876275;29;20051;-71
2023/01/03 09:18:14;;;;;;;11.20;6.00;;;;;;;;;;4875890;29;20498;-71
2023/01/03 09:20:41;;;;;;;9.10;5.53;;;;;;;;;;4876832;29;20029;-71
2023/01/03 09:23:07;;;;;;;8.07;4.95;;;;;;;;;;4876684;29;20530;-71
2023/01/03 09:25:33;;;;;;;10.55;4.78;;;;;;;;;;4876949;29;20047;-71
2023/01/03 09:28:00;;;;;;;8.52;5.10;;;;;;;;;;4890109;29;20044;-71
2023/01/03 09:30:26;;;;;;;9.70;6.43;;;;;;;;;;4860693;29;20041;-71
2023/01/03 09:32:52;;;;;;;18.73;10.45;;;;;;;;;;4876632;29;20033;-71
2023/01/03 09:35:18;;;;;;;8.75;6.10;;;;;;;;;;4877154;29;20049;-71
2023/01/03 09:37:47;;;;;;;11.65;6.13;;;;;;;;;;4876717;29;20104;-71
2023/01/03 09:40:24;;;;;;;4.28;2.75;;;;;;;;;;5128175;27;20116;-71
2023/01/03 09:45:38;;;;;;;6.13;2.80;;;;;;;;;;5127551;28;20495;-70
2023/01/03 09:48:05;;;;;;;4.57;3.33;;;;;;;;;;5127151;28;20023;-71
2023/01/03 09:50:36;;;;;;;6.60;3.42;;;;;;;;;;5128496;28;20015;-71
2023/01/03 10:04:35;;;;;;;4.70;2.83;;;;;;;;;;5085013;28;20044;-71
2023/01/03 10:07:11;;;;;;;2.80;2.22;;;;;;;;;;5068171;28;20035;-71
2023/01/03 10:09:48;;;;;;;2.15;1.95;;;;;;;;;;5083221;28;20611;-71
2023/01/03 10:12:23;;;;;;;2.35;1.70;;;;;;;;;;5064366;28;20086;-71
2023/01/03 10:15:09;;;;;;;2.78;1.80;;;;;;;;;;5079075;28;20048;-71
2023/01/03 10:17:47;;;;;;;1.60;1.50;;;;;;;;;;5105496;28;20636;-71
2023/01/03 10:20:22;;;;;;;1.27;0.98;;;;;;;;;;5092636;28;20050;-71
2023/01/03 10:22:51;;;;;;;1.10;0.98;;;;;;;;;;5083218;28;20046;-72
2023/01/03 10:25:20;;;;;;;1.95;1.00;;;;;;;;;;5079893;28;20036;-71
2023/01/03 10:27:55;;;;;;;1.23;0.98;;;;;;;;;;5084058;28;20525;-71
2023/01/03 10:30:40;;;;;;;1.10;1.10;;;;;;;;;;5100389;28;20507;-71
2023/01/03 10:33:12;;;;;;;1.85;0.93;;;;;;;;;;5083979;28;20120;-71
2023/01/03 10:35:38;;;;;;;1.58;1.10;;;;;;;;;;5084134;28;20054;-72
2023/01/03 10:38:05;;;;;;;3.80;1.30;;;;;;;;;;5083648;28;20021;-71
2023/01/03 10:40:34;;;;;;;2.58;1.10;;;;;;;;;;5092256;28;20104;-71
2023/01/03 10:43:07;;;;;;;3.53;1.30;;;;;;;;;;5126511;28;20016;-71
2023/01/03 10:45:35;;;;;;;1.60;1.23;;;;;;;;;;5127155;28;20024;-71
2023/01/03 10:48:02;;;;;;;1.33;1.20;;;;;;;;;;5108843;28;20023;-70
2023/01/03 10:50:29;;;;;;;3.67;1.30;;;;;;;;;;5120030;28;20059;-71
2023/01/03 10:53:00;;;;;;;4.20;1.10;;;;;;;;;;5113311;28;20026;-71
2023/01/03 10:55:26;;;;;;;;;;;;;;;;;;5113867;28;20032;-71
2023/01/03 10:57:52;;;;;;;1.20;1.10;;;;;;;;;;5112755;28;20286;-71
2023/01/03 11:00:32;;;;;;;2.05;1.73;;;;;;;;;;5112784;28;20043;-72
2023/01/03 11:03:25;;;;;;;1.75;1.60;;;;;;;;;;5109081;28;20019;-72
2023/01/03 11:06:01;;;;;;;2.15;1.20;;;;;;;;;;5093080;28;20053;-71
2023/01/03 11:08:53;;;;;;;4.78;1.40;;;;;;;;;;5112089;28;20419;-71
2023/01/03 11:11:33;;;;;;;1.40;1.27;;;;;;;;;;5108088;28;20518;-72
2023/01/03 11:14:05;;;;;;;0.93;0.90;;;;;;;;;;5112584;28;20027;-71
2023/01/03 11:16:32;;;;;;;2.80;1.10;;;;;;;;;;5113167;28;20505;-71
2023/01/03 11:18:59;;;;;;;2.35;1.00;;;;;;;;;;5112131;28;20024;-71
2023/01/03 11:21:31;;;;;;;1.73;1.50;;;;;;;;;;5113303;28;20030;-71
2023/01/03 11:24:07;;;;;;;3.40;1.40;;;;;;;;;;5110011;28;20741;-71
2023/01/03 11:26:36;;;;;;;1.80;1.20;;;;;;;;;;5097302;28;20042;-72
2023/01/03 11:29:21;;;;;;;4.13;1.48;;;;;;;;;;5112926;28;20026;-71
2023/01/03 11:32:13;;;;;;;1.15;1.00;;;;;;;;;;5113171;28;20033;-71
2023/01/03 11:34:43;;;;;;;3.10;1.42;;;;;;;;;;5110331;28;20034;-71
2023/01/03 11:37:09;;;;;;;1.40;1.30;;;;;;;;;;5112998;28;20441;-71
2023/01/03 11:39:35;;;;;;;1.63;1.00;;;;;;;;;;5112757;28;20044;-70
2023/01/03 11:42:05;;;;;;;1.40;1.30;;;;;;;;;;5094042;28;20030;-70
2023/01/03 11:44:40;;;;;;;1.15;1.05;;;;;;;;;;5111950;28;20039;-70
2023/01/03 11:47:06;;;;;;;1.23;1.00;;;;;;;;;;5112489;28;20026;-70
2023/01/03 11:49:44;;;;;;;1.52;1.05;;;;;;;;;;5112469;28;20433;-70
2023/01/03 11:52:33;;;;;;;3.10;0.98;;;;;;;;;;5094623;28;20030;-71
2023/01/03 11:55:08;;;;;;;2.15;1.13;;;;;;;;;;5112654;28;20020;-70
2023/01/03 11:57:46;;;;;;;1.33;1.08;;;;;;;;;;5113009;28;20027;-70
2023/01/03 12:00:22;;;;;;;1.10;1.00;;;;;;;;;;5112802;28;20418;-70
2023/01/03 12:02:57;;;;;;;1.60;1.00;;;;;;;;;;5111305;28;20033;-70
2023/01/03 12:05:26;;;;;;;6.50;1.42;;;;;;;;;;5112043;28;20050;-70
2023/01/03 12:08:11;;;;;;;1.70;1.30;;;;;;;;;;5112437;28;20403;-70
2023/01/03 12:10:38;;;;;;;1.20;1.10;;;;;;;;;;5091438;28;20020;-71
2023/01/03 12:13:04;;;;;;;4.72;2.22;;;;;;;;;;5110572;28;20019;-70
2023/01/03 12:15:51;;;;;;;1.17;1.05;;;;;;;;;;5110703;28;20072;-70
2023/01/03 12:18:43;;;;;;;3.60;1.30;;;;;;;;;;5112188;28;20035;-70
2023/01/03 12:21:18;;;;;;;1.00;0.90;;;;;;;;;;5106891;28;20042;-70
2023/01/03 12:23:44;;;;;;;2.92;1.10;;;;;;;;;;5111887;28;20012;-70
2023/01/03 12:26:13;;;;;;;1.67;1.30;;;;;;;;;;5111685;28;20027;-70
2023/01/03 12:28:41;;;;;;;2.53;2.00;;;;;;;;;;5111764;28;20049;-70
2023/01/03 12:31:17;;;;;;;2.20;0.90;;;;;;;;;;5111520;28;20407;-71
2023/01/03 12:34:02;;;;;;;1.00;0.88;;;;;;;;;;5111298;28;20432;-71
2023/01/03 12:36:38;;;;;;;1.63;0.77;;;;;;;;;;5112360;28;20024;-71
2023/01/03 12:39:23;;;;;;;2.70;1.00;;;;;;;;;;5108917;28;20035;-71
2023/01/03 12:42:00;;;;;;;3.42;1.02;;;;;;;;;;5110265;28;20019;-71
2023/01/03 12:44:33;;;;;;;3.53;2.60;;;;;;;;;;5093196;28;20035;-70
2023/01/03 12:47:00;;;;;;;3.95;1.00;;;;;;;;;;5111334;28;20407;-70
2023/01/03 12:49:26;;;;;;;2.63;0.90;;;;;;;;;;5111121;28;20015;-70
2023/01/03 12:51:52;;;;;;;2.38;0.98;;;;;;;;;;5111345;28;20522;-70
2023/01/03 12:54:19;;;;;;;3.05;2.22;;;;;;;;;;5110382;28;20032;-71
2023/01/03 12:56:45;;;;;;;4.47;1.83;;;;;;;;;;5091202;28;20026;-70
2023/01/03 12:59:20;;;;;;;3.08;1.60;;;;;;;;;;5108834;28;20022;-70
2023/01/03 13:01:53;;;;;;;1.45;1.13;;;;;;;;;;5092725;28;20376;-71
2023/01/03 13:04:19;;;;;;;0.95;0.73;;;;;;;;;;5111160;28;20024;-70
2023/01/03 13:06:48;;;;;;;1.30;1.08;;;;;;;;;;5106362;28;20064;-71
2023/01/03 13:09:30;;;;;;;1.30;0.90;;;;;;;;;;5104419;28;20030;-71
2023/01/03 13:12:00;;;;;;;0.85;0.82;;;;;;;;;;5108215;28;20012;-71
2023/01/03 13:14:27;;;;;;;2.95;0.90;;;;;;;;;;5107184;28;20068;-70
2023/01/03 13:16:55;;;;;;;1.45;0.98;;;;;;;;;;5110432;28;20028;-70
2023/01/03 13:19:21;;;;;;;1.77;1.27;;;;;;;;;;5110338;28;20042;-70
2023/01/03 13:21:50;;;;;;;1.83;1.10;;;;;;;;;;5091915;28;20440;-70
2023/01/03 13:24:35;;;;;;;2.28;1.60;;;;;;;;;;5107494;28;20022;-70
2023/01/03 13:27:20;;;;;;;1.52;1.10;;;;;;;;;;5107012;28;20035;-70
2023/01/03 13:29:49;;;;;;;2.17;1.75;;;;;;;;;;5109219;28;20020;-70
2023/01/03 13:32:21;;;;;;;7.18;4.80;;;;;;;;;;5110773;28;20364;-70
2023/01/03 13:34:54;;;;;;;4.75;3.38;;;;;;;;;;5109391;28;20496;-70
2023/01/03 13:37:21;;;;;;;3.60;1.52;;;;;;;;;;5110662;28;20037;-70
2023/01/03 13:39:57;;;;;;;3.28;2.40;;;;;;;;;;5110366;28;20050;-70
2023/01/03 13:42:34;;;;;;;1.10;1.00;;;;;;;;;;5109987;28;20035;-70
2023/01/03 13:45:18;;;;;;;1.60;1.48;;;;;;;;;;5103075;28;20476;-70
2023/01/03 13:47:52;;;;;;;2.88;1.92;;;;;;;;;;5093656;28;20032;-70
2023/01/03 13:50:47;;;;;;;2.35;2.15;;;;;;;;;;5110183;28;20391;-70
2023/01/03 13:53:14;;;;;;;2.15;1.50;;;;;;;;;;5088005;28;20032;-70
2023/01/03 13:55:43;;;;;;;1.52;1.30;;;;;;;;;;5109191;28;20032;-70
2023/01/03 13:58:28;;;;;;;3.10;1.42;;;;;;;;;;5101293;28;20035;-70
2023/01/03 14:00:56;;;;;;;3.80;2.92;;;;;;;;;;5095279;28;20034;-70
2023/01/03 14:03:34;;;;;;;2.42;2.00;;;;;;;;;;5109519;28;20023;-70
2023/01/03 14:06:03;;;;;;;4.10;1.77;;;;;;;;;;5109787;28;20034;-72
2023/01/03 14:08:30;;;;;;;2.58;1.88;;;;;;;;;;5090453;28;20019;-70
2023/01/03 14:11:15;;;;;;;6.95;4.22;;;;;;;;;;5093197;28;20036;-69
2023/01/03 14:13:44;;;;;;;2.72;2.10;;;;;;;;;;5094559;28;20027;-70
2023/01/03 14:16:21;;;;;;;3.22;1.85;;;;;;;;;;5107668;28;20026;-70
2023/01/03 14:18:51;;;;;;;2.25;2.05;;;;;;;;;;5089667;28;20016;-70
2023/01/03 14:21:22;;;;;;;6.53;2.30;;;;;;;;;;5098401;28;20069;-70
2023/01/03 14:23:49;;;;;;;3.55;2.25;;;;;;;;;;5089965;28;20026;-70
2023/01/03 14:26:16;;;;;;;3.35;1.92;;;;;;;;;;5103586;28;20069;-70
2023/01/03 14:28:47;;;;;;;2.50;1.83;;;;;;;;;;5099683;28;20030;-70
2023/01/03 14:31:18;;;;;;;3.13;2.20;;;;;;;;;;5093834;28;20430;-70
2023/01/03 14:33:49;;;;;;;2.58;2.00;;;;;;;;;;5093977;28;20031;-70
2023/01/03 14:36:16;;;;;;;3.10;2.25;;;;;;;;;;5093394;28;20024;-70
2023/01/03 14:39:01;;;;;;;3.35;1.70;;;;;;;;;;5093263;28;20028;-70
2023/01/03 14:41:37;;;;;;;7.53;2.90;;;;;;;;;;5093314;28;20057;-70
2023/01/03 14:44:03;;;;;;;2.53;1.88;;;;;;;;;;5093312;28;20017;-70
2023/01/03 14:46:30;;;;;;;2.00;1.80;;;;;;;;;;5093812;28;20100;-70
2023/01/03 14:48:57;;;;;;;2.30;1.88;;;;;;;;;;5096234;28;20463;-70
2023/01/03 14:51:24;;;;;;;4.50;1.70;;;;;;;;;;5110429;28;20024;-70
2023/01/03 14:53:51;;;;;;;4.13;2.28;;;;;;;;;;5114068;28;20038;-70
2023/01/03 14:56:20;;;;;;;4.63;1.88;;;;;;;;;;5113629;28;20042;-70
2023/01/03 14:58:46;;;;;;;2.25;1.67;;;;;;;;;;5113477;28;20045;-70
2023/01/03 15:01:13;;;;;;;2.65;1.98;;;;;;;;;;5112916;28;20028;-72
2023/01/03 15:03:44;;;;;;;2.03;1.83;;;;;;;;;;5113536;28;20027;-72
2023/01/03 15:06:17;;;;;;;1.90;1.70;;;;;;;;;;5113865;28;20509;-73
2023/01/03 15:08:44;;;;;;;3.78;2.03;;;;;;;;;;5113234;28;20511;-71
2023/01/03 15:11:12;;;;;;;3.97;1.80;;;;;;;;;;5113273;28;20034;-73
2023/01/03 15:13:49;;;;;;;4.30;2.65;;;;;;;;;;5113019;28;20019;-72
2023/01/03 15:16:30;;;;;;;3.53;2.60;;;;;;;;;;5110907;28;20027;-72
2023/01/03 15:19:02;;;;;;;5.07;3.30;;;;;;;;;;5112675;28;20028;-72
2023/01/03 15:21:29;;;;;;;4.40;3.03;;;;;;;;;;5113343;28;20042;-73
2023/01/03 15:23:55;;;;;;;3.97;2.88;;;;;;;;;;5113484;28;20046;-73
2023/01/03 15:26:41;;;;;;;7.32;4.07;;;;;;;;;;5112193;28;20458;-70
2023/01/03 15:29:07;;;;;;;8.88;5.13;;;;;;;;;;5100954;28;20024;-70
2023/01/03 15:31:35;;;;;;;7.18;4.07;;;;;;;;;;5110478;28;20032;-70
2023/01/03 15:34:14;;;;;;;5.38;3.70;;;;;;;;;;5111717;28;20036;-71
2023/01/03 15:36:41;;;;;;;8.95;3.00;;;;;;;;;;5112875;28;20036;-71
2023/01/03 15:39:08;;;;;;;5.53;2.38;;;;;;;;;;5112542;28;20109;-71
2023/01/03 15:44:25;;;;;;;1.52;1.00;;;;;;;;;;5108683;28;20043;-70
2023/01/03 15:46:54;;;;;;;3.50;2.10;;;;;;;;;;5112562;28;20057;-70
2023/01/03 15:49:21;;;;;;;2.15;1.42;;;;;;;;;;5111014;28;20450;-70
2023/01/03 15:51:48;;;;;;;3.67;1.20;;;;;;;;;;5112267;28;20023;-70
2023/01/03 15:54:16;;;;;;;1.80;1.25;;;;;;;;;;5112692;28;20031;-70
2023/01/03 15:56:52;;;;;;;1.98;1.20;;;;;;;;;;5112076;28;20064;-70
2023/01/03 15:59:24;;;;;;;1.80;1.15;;;;;;;;;;5092133;28;20036;-71
2023/01/03 16:01:51;;;;;;;1.10;1.00;;;;;;;;;;5091713;28;20425;-70
2023/01/03 16:04:18;;;;;;;4.55;1.50;;;;;;;;;;5092276;28;20034;-70